DNAA

Nnamdi Azikiwe International Airport

Abuja, Nigeria
METAR DNAA 180100Z VRB02KT 9999 FEW008 22/20 Q1013 NOSIG
Observed Flight Rules
Oct-18 @ 01:00 UTC (42 minutes ago) Visual Flight Rules
Wind Visibility Clouds
Variable at 2 knots 10,000+ meters
  • Few at 800' AGL
Temperatures Readings
Current 22°C / 72°F
Dewpoint 20°C / 68°F
Humidity 88%
Altimeter 29.91" Hg
Pressure 1013 hPa
Elevation 344
METAR DNAA 180100Z VRB02KT 9999 FEW008 22/20 Q1013 NOSIG
Observed Flight Rules
Oct-18 @ 01:00 UTC
(42 minutes ago)
VFR
Wind Visibility
Variable at 2 knots 10,000+ meters
Clouds
  • Few at 800' AGL
Temperature Dewpoint
22°C / 72°F 20°C / 68°F
Humidity Altimeter Pressure
88% 29.91" Hg 1013 hPa